createdAt,value
2019-02-12T00:00:57.297Z,2.50
2019-02-12T00:05:02.970Z,2.40
2019-02-12T00:09:10.289Z,2.40
2019-02-12T00:13:15.978Z,2.30
2019-02-12T00:17:21.823Z,2.33
2019-02-12T00:21:28.476Z,2.93
2019-02-12T00:25:34.276Z,2.23
2019-02-12T00:29:39.916Z,2.97
2019-02-12T00:33:45.593Z,2.60
2019-02-12T00:37:51.314Z,2.87
2019-02-12T00:41:57.005Z,2.80
2019-02-12T00:46:02.687Z,2.57
2019-02-12T00:50:11.556Z,2.57
2019-02-12T00:54:18.207Z,2.70
2019-02-12T00:58:23.892Z,2.73
2019-02-12T01:02:29.561Z,2.83
2019-02-12T01:06:35.293Z,2.90
2019-02-12T01:10:41.031Z,2.60
2019-02-12T01:14:46.704Z,2.90
2019-02-12T01:18:52.370Z,3.30
2019-02-12T01:22:58.057Z,3.17
2019-02-12T01:27:03.741Z,3.00
2019-02-12T01:31:09.422Z,3.13
2019-02-12T01:35:15.136Z,2.87
2019-02-12T01:39:20.940Z,3.23
2019-02-12T01:43:26.637Z,3.23
2019-02-12T01:47:32.352Z,3.47
2019-02-12T01:51:38.047Z,2.90
2019-02-12T01:55:43.732Z,3.20
2019-02-12T01:59:49.405Z,3.10
2019-02-12T02:03:55.093Z,3.10
2019-02-12T02:08:00.792Z,2.93
2019-02-12T02:12:06.487Z,3.20
2019-02-12T02:16:12.157Z,3.10
2019-02-12T02:20:17.854Z,2.70
2019-02-12T02:24:25.188Z,3.13
2019-02-12T02:28:30.949Z,2.60
2019-02-12T02:32:36.617Z,2.70
2019-02-12T02:36:42.322Z,2.50
2019-02-12T02:40:48.013Z,2.40
2019-02-12T02:44:53.679Z,2.90
2019-02-12T02:48:59.400Z,2.67
2019-02-12T02:53:05.093Z,2.57
2019-02-12T02:57:10.757Z,2.80
2019-02-12T03:01:16.439Z,2.70
2019-02-12T03:05:22.163Z,2.60
2019-02-12T03:09:27.831Z,2.67
2019-02-12T03:13:33.877Z,2.80
2019-02-12T03:17:39.696Z,2.80
2019-02-12T03:21:45.382Z,2.70
2019-02-12T03:25:52.690Z,2.83
2019-02-12T03:29:58.354Z,2.70
2019-02-12T03:34:04.046Z,2.50
2019-02-12T03:38:09.701Z,2.50
2019-02-12T03:42:15.447Z,2.80
2019-02-12T03:46:21.277Z,3.25
2019-02-12T03:50:26.957Z,2.73
2019-02-12T03:54:32.705Z,2.50
2019-02-12T03:58:38.434Z,2.60
2019-02-12T04:03:07.987Z,2.80
2019-02-12T04:07:13.668Z,3.10
2019-02-12T04:11:19.415Z,3.50
2019-02-12T04:15:25.184Z,2.98
2019-02-12T04:19:30.877Z,3.00
2019-02-12T04:23:36.702Z,2.90
2019-02-12T04:27:43.521Z,2.93
2019-02-12T04:31:49.202Z,2.70
2019-02-12T04:35:54.856Z,2.87
2019-02-12T04:40:00.532Z,2.67
2019-02-12T04:44:06.210Z,3.23
2019-02-12T04:48:11.885Z,3.30
2019-02-12T04:52:17.569Z,2.97
2019-02-12T04:56:23.274Z,3.13
2019-02-12T05:00:30.619Z,2.77
2019-02-12T05:04:36.319Z,3.00
2019-02-12T05:09:15.226Z,3.10
2019-02-12T05:13:20.919Z,3.10
2019-02-12T05:17:26.609Z,3.07
2019-02-12T05:21:32.295Z,3.20
2019-02-12T05:25:38.065Z,2.70
2019-02-12T05:29:43.751Z,3.00
2019-02-12T05:33:49.460Z,2.98
2019-02-12T05:37:55.180Z,2.80
2019-02-12T05:42:00.839Z,2.73
2019-02-12T05:46:06.528Z,2.80
2019-02-12T05:50:15.384Z,2.70
2019-02-12T05:54:21.118Z,2.63
2019-02-12T05:58:26.805Z,2.70
2019-02-12T06:02:32.471Z,2.63
2019-02-12T06:06:38.159Z,2.80
2019-02-12T06:10:46.039Z,3.00
2019-02-12T06:14:51.725Z,2.90
2019-02-12T06:18:57.438Z,2.67
2019-02-12T06:23:04.241Z,2.53
2019-02-12T06:27:10.089Z,2.60
2019-02-12T06:31:15.780Z,2.37
2019-02-12T06:35:21.529Z,2.60
2019-02-12T06:39:27.201Z,2.53
2019-02-12T06:43:32.896Z,2.70
2019-02-12T06:47:38.579Z,2.90
2019-02-12T06:51:44.365Z,2.83
2019-02-12T06:55:50.047Z,2.37
2019-02-12T06:59:55.729Z,2.67
2019-02-12T07:04:01.447Z,2.87
2019-02-12T07:08:31.312Z,3.20
2019-02-12T07:12:56.514Z,2.90
2019-02-12T07:17:09.338Z,3.03
2019-02-12T07:21:46.596Z,2.87
2019-02-12T07:26:02.505Z,3.40
2019-02-12T07:30:36.508Z,2.90
2019-02-12T07:34:58.831Z,3.40
2019-02-12T07:39:27.099Z,3.20
2019-02-12T07:44:05.588Z,2.50
2019-02-12T07:48:50.404Z,2.90
2019-02-12T07:53:15.543Z,3.00
2019-02-12T07:57:49.889Z,2.83
2019-02-12T08:02:05.684Z,3.10
2019-02-12T08:06:36.476Z,3.17
2019-02-12T08:11:21.259Z,2.93
2019-02-12T08:15:48.876Z,2.90
2019-02-12T08:20:21.504Z,2.47
2019-02-12T08:24:47.689Z,2.57
2019-02-12T08:29:30.261Z,2.30
2019-02-12T08:34:04.662Z,3.53
2019-02-12T08:38:26.494Z,3.20
2019-02-12T08:42:48.671Z,2.50
2019-02-12T08:47:15.174Z,3.07
2019-02-12T08:51:34.231Z,2.43
2019-02-12T08:56:10.831Z,2.70
2019-02-12T09:00:26.853Z,2.40
2019-02-12T09:04:39.835Z,2.27
2019-02-12T09:09:07.760Z,2.20
2019-02-12T09:13:32.760Z,1.90
2019-02-12T09:18:14.195Z,2.33
2019-02-12T09:22:48.225Z,2.20
2019-02-12T09:27:04.043Z,2.40
2019-02-12T09:31:39.474Z,2.30
2019-02-12T09:36:03.002Z,2.00
2019-02-12T09:40:46.316Z,2.20
2019-02-12T09:45:14.299Z,1.53
2019-02-12T09:49:55.701Z,2.00
2019-02-12T09:54:32.665Z,2.10
2019-02-12T09:59:04.803Z,2.30
2019-02-12T10:03:40.519Z,1.70
2019-02-12T10:08:19.406Z,1.83
2019-02-12T10:12:41.888Z,2.10
2019-02-12T10:16:58.116Z,1.80
2019-02-12T10:21:32.184Z,1.70
2019-02-12T10:25:38.061Z,1.90
2019-02-12T10:29:59.987Z,1.90
2019-02-12T10:34:06.042Z,1.90
2019-02-12T10:42:17.468Z,1.60
2019-02-12T10:46:23.175Z,1.43
2019-02-12T10:50:28.942Z,2.10
2019-02-12T10:54:34.635Z,1.80
2019-02-12T10:58:41.321Z,1.50
2019-02-12T11:02:55.384Z,1.50
2019-02-12T11:07:01.082Z,1.80
2019-02-12T11:11:06.850Z,1.40
2019-02-12T11:15:12.761Z,1.77
2019-02-12T11:19:18.440Z,1.47
2019-02-12T11:23:24.156Z,1.30
2019-02-12T11:27:29.874Z,1.40
2019-02-12T11:31:35.565Z,1.43
2019-02-12T11:35:41.562Z,1.30
2019-02-12T11:39:47.251Z,1.53
2019-02-12T11:43:54.595Z,1.47
2019-02-12T11:48:02.466Z,1.57
2019-02-12T11:52:08.259Z,1.63
2019-02-12T11:56:13.925Z,1.60
2019-02-12T12:00:21.268Z,1.57
2019-02-12T12:04:26.960Z,1.97
2019-02-12T12:08:35.051Z,1.73
2019-02-12T12:12:40.835Z,2.10
2019-02-12T12:16:46.524Z,1.73
2019-02-12T12:20:52.222Z,1.90
2019-02-12T12:24:57.935Z,1.63
2019-02-12T12:29:03.637Z,1.53
2019-02-12T12:33:09.658Z,1.90
2019-02-12T12:37:15.393Z,1.67
2019-02-12T12:41:21.079Z,1.50
2019-02-12T12:45:26.863Z,1.47
2019-02-12T12:49:32.558Z,1.63
2019-02-12T12:53:38.271Z,1.45
2019-02-12T12:57:43.974Z,1.57
2019-02-12T13:01:49.697Z,1.67
2019-02-12T13:05:56.626Z,1.67
2019-02-12T13:10:02.302Z,1.83
2019-02-12T13:14:07.982Z,1.83
2019-02-12T13:18:13.676Z,1.70
2019-02-12T13:22:19.372Z,1.90
2019-02-12T13:26:25.188Z,1.85
2019-02-12T13:30:30.858Z,1.77
2019-02-12T13:34:36.537Z,1.70
2019-02-12T13:38:42.237Z,1.60
2019-02-12T13:42:47.941Z,2.07
2019-02-12T13:46:53.653Z,2.07
2019-02-12T13:50:59.363Z,1.70
2019-02-12T13:55:07.621Z,2.00
2019-02-12T13:59:13.314Z,1.97
2019-02-12T14:03:22.531Z,1.60
2019-02-12T14:07:27.771Z,1.80
2019-02-12T14:11:33.453Z,2.07
2019-02-12T14:15:39.228Z,1.90
2019-02-12T14:19:44.910Z,2.03
2019-02-12T14:23:50.623Z,1.93
2019-02-12T14:27:57.961Z,1.67
2019-02-12T14:32:03.741Z,1.70
2019-02-12T14:36:09.505Z,1.80
2019-02-12T14:40:17.103Z,1.40
2019-02-12T14:44:22.791Z,1.60
2019-02-12T14:48:28.494Z,1.73
2019-02-12T14:52:34.215Z,1.80
2019-02-12T14:56:39.929Z,1.50
2019-02-12T15:00:45.625Z,1.60
2019-02-12T15:04:51.323Z,1.60
2019-02-12T15:08:57.025Z,1.90
2019-02-12T15:13:02.713Z,2.03
2019-02-12T15:17:08.427Z,2.53
2019-02-12T15:21:14.208Z,1.77
2019-02-12T15:25:19.961Z,2.03
2019-02-12T15:29:25.688Z,1.80
2019-02-12T15:33:31.399Z,1.80
2019-02-12T15:37:37.096Z,1.40
2019-02-12T15:41:42.804Z,1.73
2019-02-12T15:45:48.492Z,1.70
2019-02-12T15:49:54.213Z,1.97
2019-02-12T15:53:59.883Z,2.37
2019-02-12T15:58:06.318Z,2.07
2019-02-12T16:02:13.682Z,1.60
2019-02-12T16:06:21.042Z,1.83
2019-02-12T16:10:26.896Z,1.73
2019-02-12T16:14:33.779Z,1.90
2019-02-12T16:18:39.575Z,1.90
2019-02-12T16:22:45.352Z,2.00
2019-02-12T16:26:52.302Z,1.80
2019-02-12T16:30:57.969Z,1.80
2019-02-12T16:35:04.321Z,2.17
2019-02-12T16:39:10.012Z,1.70
2019-02-12T16:43:18.637Z,1.97
2019-02-12T16:47:24.438Z,2.00
2019-02-12T16:52:20.811Z,2.10
2019-02-12T16:56:26.406Z,2.00
2019-02-12T17:01:18.009Z,1.97
2019-02-12T17:05:24.735Z,1.70
2019-02-12T17:10:15.179Z,2.23
2019-02-12T17:14:20.974Z,2.10
2019-02-12T17:18:26.982Z,2.47
2019-02-12T17:22:32.643Z,2.10
2019-02-12T17:26:38.347Z,2.20
2019-02-12T17:31:18.815Z,1.83
2019-02-12T17:35:24.946Z,1.90
2019-02-12T17:39:30.729Z,1.77
2019-02-12T17:43:36.438Z,2.20
2019-02-12T17:47:42.118Z,2.00
2019-02-12T17:52:17.727Z,2.00
2019-02-12T17:56:24.963Z,1.97
2019-02-12T18:00:37.197Z,1.90
2019-02-12T18:05:19.537Z,2.50
2019-02-12T18:09:26.068Z,1.90
2019-02-12T18:13:33.762Z,1.90
2019-02-12T18:17:40.882Z,2.50
2019-02-12T18:22:17.703Z,2.37
2019-02-12T18:26:23.433Z,3.03
2019-02-12T18:35:41.499Z,3.50
2019-02-12T18:39:47.175Z,3.03
2019-02-12T18:43:52.943Z,2.37
2019-02-12T18:47:58.660Z,2.20
2019-02-12T18:52:04.517Z,2.60
2019-02-12T18:56:10.283Z,2.97
2019-02-12T19:00:21.443Z,2.67
2019-02-12T19:04:27.384Z,2.70
2019-02-12T19:08:33.138Z,2.83
2019-02-12T19:12:39.567Z,2.50
2019-02-12T19:16:47.049Z,2.30
2019-02-12T19:20:52.818Z,2.30
2019-02-12T19:24:58.589Z,3.00
2019-02-12T19:29:04.334Z,2.27
2019-02-12T19:33:10.111Z,2.40
2019-02-12T19:37:15.888Z,2.10
2019-02-12T19:41:21.655Z,2.63
2019-02-12T19:45:27.528Z,2.47
2019-02-12T19:49:36.292Z,5.72
2019-02-12T19:54:19.686Z,3.90
2019-02-12T19:58:25.636Z,2.60
2019-02-12T20:03:16.712Z,2.20
2019-02-12T20:07:22.519Z,2.67
2019-02-12T20:12:16.294Z,3.02
2019-02-12T20:16:22.048Z,2.57
2019-02-12T20:21:16.049Z,2.70
2019-02-12T20:25:21.825Z,2.33
2019-02-12T20:30:15.144Z,2.20
2019-02-12T20:34:20.823Z,2.93
2019-02-12T20:43:20.249Z,2.53
2019-02-12T20:47:26.173Z,2.60
2019-02-12T20:51:31.853Z,3.13
2019-02-12T20:55:40.590Z,2.37
2019-02-12T21:00:22.488Z,2.43
2019-02-12T21:04:28.351Z,2.97
2019-02-12T21:09:15.966Z,2.40
2019-02-12T21:13:21.676Z,2.60
2019-02-12T21:17:27.577Z,3.33
2019-02-12T21:21:33.368Z,2.67
2019-02-12T21:25:39.837Z,2.80
2019-02-12T21:30:19.855Z,3.00
2019-02-12T21:34:25.660Z,2.77
2019-02-12T21:38:31.572Z,2.63
2019-02-12T21:42:38.627Z,2.77
2019-02-12T21:46:44.337Z,3.43
2019-02-12T21:51:19.450Z,2.77
2019-02-12T21:55:25.787Z,3.30
2019-02-12T21:59:31.494Z,3.20
2019-02-12T22:03:39.172Z,2.73
2019-02-12T22:07:46.882Z,3.17
2019-02-12T22:12:19.454Z,3.00
2019-02-12T22:16:25.266Z,2.80
2019-02-12T22:20:30.955Z,2.97
2019-02-12T22:24:38.251Z,3.20
2019-02-12T22:28:43.933Z,3.30
2019-02-12T22:33:07.734Z,3.63
2019-02-12T22:37:13.427Z,4.00
2019-02-12T22:41:19.117Z,4.00
2019-02-12T22:45:26.302Z,3.10
2019-02-12T22:49:32.163Z,3.00
2019-02-12T22:53:37.895Z,2.63
2019-02-12T22:57:49.423Z,3.17
2019-02-12T23:01:54.038Z,3.40
2019-02-12T23:06:00.017Z,3.13
2019-02-12T23:10:08.958Z,3.00
2019-02-12T23:14:14.837Z,3.47
2019-02-12T23:18:20.527Z,3.30
2019-02-12T23:22:26.222Z,3.13
2019-02-12T23:26:32.096Z,3.07
2019-02-12T23:30:37.873Z,3.40
2019-02-12T23:34:43.618Z,2.60
2019-02-12T23:38:49.300Z,3.00
2019-02-12T23:42:56.064Z,3.00
2019-02-12T23:47:01.757Z,3.23
2019-02-12T23:51:07.443Z,2.70
2019-02-12T23:55:13.128Z,2.67
2019-02-12T23:59:18.827Z,2.90
